createdAt,value
2017-11-15T00:00:20.128Z,4.76
2017-11-15T00:02:13.442Z,4.83
2017-11-15T00:03:12.827Z,4.84
2017-11-15T00:05:05.987Z,4.73
2017-11-15T00:06:05.911Z,4.73
2017-11-15T00:07:59.094Z,4.69
2017-11-15T00:08:58.950Z,4.77
2017-11-15T00:10:52.606Z,4.73
2017-11-15T00:11:52.524Z,4.76
2017-11-15T00:13:45.684Z,4.73
2017-11-15T00:14:46.081Z,4.76
2017-11-15T00:16:39.213Z,4.86
2017-11-15T00:17:38.663Z,4.79
2017-11-15T00:19:31.808Z,4.83
2017-11-15T00:20:32.268Z,4.75
2017-11-15T00:22:24.832Z,4.77
2017-11-15T00:23:25.310Z,4.75
2017-11-15T00:25:17.945Z,4.62
2017-11-15T00:26:17.864Z,4.61
2017-11-15T00:28:11.414Z,4.76
2017-11-15T00:29:11.886Z,4.76
2017-11-15T00:31:04.584Z,4.75
2017-11-15T00:32:04.484Z,4.58
2017-11-15T00:33:58.452Z,4.64
2017-11-15T00:34:58.046Z,4.73
2017-11-15T00:36:51.107Z,4.80
2017-11-15T00:37:51.091Z,4.83
2017-11-15T00:39:44.225Z,4.77
2017-11-15T00:40:44.159Z,4.89
2017-11-15T00:42:37.325Z,4.88
2017-11-15T00:43:37.206Z,4.94
2017-11-15T00:45:30.836Z,4.94
2017-11-15T00:46:30.227Z,4.95
2017-11-15T00:48:23.924Z,4.91
2017-11-15T00:49:24.357Z,4.89
2017-11-15T00:51:16.847Z,4.89
2017-11-15T00:52:16.837Z,4.91
2017-11-15T00:54:11.542Z,4.95
2017-11-15T00:55:11.459Z,4.91
2017-11-15T00:57:05.078Z,4.95
2017-11-15T00:58:05.015Z,4.91
2017-11-15T01:00:00.138Z,4.94
2017-11-15T01:01:00.084Z,4.96
2017-11-15T01:02:52.704Z,4.95
2017-11-15T01:03:52.724Z,4.91
2017-11-15T01:05:45.866Z,4.86
2017-11-15T01:06:45.696Z,4.95
2017-11-15T01:08:38.863Z,4.95
2017-11-15T01:09:38.811Z,4.92
2017-11-15T01:11:31.905Z,4.95
2017-11-15T01:12:32.381Z,4.96
2017-11-15T01:14:25.513Z,5.04
2017-11-15T01:15:24.920Z,4.99
2017-11-15T01:17:18.095Z,4.92
2017-11-15T01:18:18.010Z,4.89
2017-11-15T01:20:11.095Z,4.91
2017-11-15T01:21:11.049Z,4.92
2017-11-15T01:23:04.104Z,4.99
2017-11-15T01:24:04.022Z,4.96
2017-11-15T01:25:57.240Z,4.99
2017-11-15T01:26:57.058Z,4.98
2017-11-15T01:28:50.311Z,4.95
2017-11-15T01:29:50.750Z,4.99
2017-11-15T01:31:43.349Z,4.92
2017-11-15T01:32:43.255Z,4.94
2017-11-15T01:34:36.965Z,4.95
2017-11-15T01:35:36.832Z,4.98
2017-11-15T01:37:29.946Z,4.92
2017-11-15T01:38:29.897Z,4.96
2017-11-15T01:40:23.525Z,4.95
2017-11-15T01:41:22.863Z,4.95
2017-11-15T01:43:15.993Z,4.95
2017-11-15T01:44:16.502Z,4.98
2017-11-15T01:46:09.122Z,4.98
2017-11-15T01:47:09.585Z,4.96
2017-11-15T01:49:02.195Z,4.99
2017-11-15T01:50:02.564Z,4.98
2017-11-15T01:51:55.262Z,4.95
2017-11-15T01:52:55.169Z,4.98
2017-11-15T01:54:48.829Z,4.91
2017-11-15T01:55:49.253Z,4.96
2017-11-15T01:57:43.956Z,4.94
2017-11-15T01:58:43.319Z,4.92
2017-11-15T02:00:36.410Z,4.92
2017-11-15T02:01:36.408Z,4.94
2017-11-15T02:03:29.508Z,4.95
2017-11-15T02:04:29.440Z,4.91
2017-11-15T02:06:22.674Z,5.02
2017-11-15T02:07:22.631Z,5.01
2017-11-15T02:09:15.717Z,4.92
2017-11-15T02:10:15.648Z,4.95
2017-11-15T02:12:08.706Z,4.95
2017-11-15T02:13:08.739Z,4.96
2017-11-15T02:15:01.855Z,5.02
2017-11-15T02:16:01.769Z,5.02
2017-11-15T02:17:57.130Z,5.01
2017-11-15T02:18:56.338Z,5.02
2017-11-15T02:20:49.493Z,5.02
2017-11-15T02:21:49.356Z,4.99
2017-11-15T02:23:42.560Z,4.94
2017-11-15T02:24:42.508Z,4.95
2017-11-15T02:26:35.602Z,4.95
2017-11-15T02:27:35.527Z,4.99
2017-11-15T02:29:29.852Z,4.92
2017-11-15T02:30:29.546Z,4.89
2017-11-15T02:32:22.171Z,4.86
2017-11-15T02:33:22.071Z,4.92
2017-11-15T02:35:15.313Z,4.88
2017-11-15T02:36:15.197Z,4.94
2017-11-15T02:38:08.336Z,4.89
2017-11-15T02:39:08.817Z,4.89
2017-11-15T02:41:01.417Z,4.86
2017-11-15T02:42:01.311Z,4.91
2017-11-15T02:43:01.291Z,4.89
2017-11-15T02:44:01.260Z,4.91
2017-11-15T02:45:01.226Z,4.92
2017-11-15T02:46:01.165Z,4.88
2017-11-15T02:47:01.136Z,4.86
2017-11-15T02:48:01.052Z,4.92
2017-11-15T02:49:01.019Z,4.89
2017-11-15T02:50:00.916Z,4.91
2017-11-15T02:51:00.905Z,4.95
2017-11-15T02:52:00.921Z,4.83
2017-11-15T02:53:00.860Z,4.94
2017-11-15T02:54:00.791Z,4.91
2017-11-15T02:55:00.754Z,4.84
2017-11-15T02:56:00.712Z,4.86
2017-11-15T02:57:00.645Z,4.92
2017-11-15T02:58:00.595Z,4.83
2017-11-15T02:59:00.598Z,4.91
2017-11-15T03:00:00.859Z,4.91
2017-11-15T03:01:00.487Z,4.86
2017-11-15T03:02:00.448Z,4.92
2017-11-15T03:03:00.938Z,4.89
2017-11-15T03:04:00.354Z,4.86
2017-11-15T03:05:00.308Z,4.89
2017-11-15T03:06:00.271Z,4.94
2017-11-15T03:07:00.247Z,4.95
2017-11-15T03:08:00.167Z,4.92
2017-11-15T03:09:00.110Z,4.98
2017-11-15T03:10:00.648Z,5.04
2017-11-15T03:11:00.064Z,5.01
2017-11-15T03:12:00.515Z,5.04
2017-11-15T03:12:59.981Z,4.98
2017-11-15T03:14:00.386Z,4.98
2017-11-15T03:14:59.837Z,4.96
2017-11-15T03:15:59.850Z,4.95
2017-11-15T03:16:59.747Z,5.01
2017-11-15T03:17:59.780Z,4.95
2017-11-15T03:18:59.673Z,4.92
2017-11-15T03:20:00.026Z,4.98
2017-11-15T03:20:59.631Z,5.05
2017-11-15T03:21:59.530Z,4.99
2017-11-15T03:23:00.041Z,5.04
2017-11-15T03:23:59.501Z,4.98
2017-11-15T03:24:59.461Z,5.05
2017-11-15T03:25:59.393Z,5.01
2017-11-15T03:26:59.744Z,5.02
2017-11-15T03:27:59.305Z,4.98
2017-11-15T03:28:59.313Z,5.02
2017-11-15T03:29:59.222Z,5.02
2017-11-15T03:30:59.198Z,5.04
2017-11-15T03:31:59.121Z,4.98
2017-11-15T03:32:59.615Z,5.02
2017-11-15T03:33:59.066Z,5.02
2017-11-15T03:34:59.015Z,5.01
2017-11-15T03:35:58.972Z,4.98
2017-11-15T03:36:59.453Z,4.99
2017-11-15T03:37:58.897Z,5.02
2017-11-15T03:39:00.237Z,5.05
2017-11-15T03:40:01.279Z,5.02
2017-11-15T03:41:02.211Z,4.98
2017-11-15T03:42:01.432Z,5.02
2017-11-15T03:42:59.604Z,5.04
2017-11-15T03:44:00.110Z,5.05
2017-11-15T03:45:02.404Z,5.10
2017-11-15T03:45:59.813Z,5.12
2017-11-15T03:47:00.118Z,4.99
2017-11-15T03:48:00.059Z,5.05
2017-11-15T03:49:00.749Z,5.12
2017-11-15T03:50:00.939Z,5.07
2017-11-15T03:50:58.567Z,5.09
2017-11-15T03:52:00.096Z,5.02
2017-11-15T03:52:59.703Z,5.02
2017-11-15T03:53:59.832Z,5.01
2017-11-15T03:54:58.728Z,5.04
2017-11-15T03:55:58.083Z,5.09
2017-11-15T03:56:59.996Z,5.02
2017-11-15T03:57:59.949Z,5.05
2017-11-15T03:58:58.816Z,5.10
2017-11-15T04:00:00.024Z,5.07
2017-11-15T04:00:58.387Z,4.96
2017-11-15T04:01:59.904Z,5.01
2017-11-15T04:03:00.691Z,4.98
2017-11-15T04:03:58.126Z,5.07
2017-11-15T04:04:59.756Z,4.92
2017-11-15T04:05:58.302Z,4.98
2017-11-15T04:06:58.581Z,4.98
2017-11-15T04:07:59.584Z,4.95
2017-11-15T04:08:59.372Z,5.02
2017-11-15T04:09:59.066Z,5.01
2017-11-15T04:11:00.574Z,5.04
2017-11-15T04:11:59.060Z,5.05
2017-11-15T04:12:58.613Z,5.07
2017-11-15T04:13:59.267Z,5.05
2017-11-15T04:14:58.876Z,5.09
2017-11-15T04:15:57.185Z,4.98
2017-11-15T04:16:57.653Z,5.07
2017-11-15T04:17:57.663Z,5.04
2017-11-15T04:18:57.713Z,5.05
2017-11-15T04:19:58.630Z,4.96
2017-11-15T04:20:59.862Z,4.96
2017-11-15T04:21:59.024Z,5.01
2017-11-15T04:22:57.263Z,5.02
2017-11-15T04:23:59.072Z,5.04
2017-11-15T04:24:56.745Z,4.95
2017-11-15T04:25:58.728Z,4.96
2017-11-15T04:27:00.080Z,5.02
2017-11-15T04:27:58.639Z,5.04
2017-11-15T04:28:59.818Z,5.04
2017-11-15T04:29:58.094Z,4.99
2017-11-15T04:30:59.855Z,4.94
2017-11-15T04:31:58.118Z,5.10
2017-11-15T04:32:57.108Z,5.04
2017-11-15T04:33:59.329Z,5.10
2017-11-15T04:34:58.478Z,5.04
2017-11-15T04:35:56.694Z,5.02
2017-11-15T04:36:56.289Z,5.01
2017-11-15T04:37:57.100Z,5.04
2017-11-15T04:38:59.094Z,5.04
2017-11-15T04:39:56.909Z,5.12
2017-11-15T04:40:57.965Z,5.01
2017-11-15T04:41:57.961Z,5.07
2017-11-15T04:42:58.840Z,4.94
2017-11-15T04:43:58.140Z,5.07
2017-11-15T04:44:58.808Z,5.10
2017-11-15T04:45:57.047Z,5.05
2017-11-15T04:46:57.295Z,5.04
2017-11-15T04:47:59.347Z,5.04
2017-11-15T04:48:57.950Z,5.05
2017-11-15T04:49:57.942Z,5.04
2017-11-15T04:50:58.363Z,4.99
2017-11-15T04:51:57.400Z,5.09
2017-11-15T04:52:58.923Z,5.02
2017-11-15T04:53:57.078Z,5.04
2017-11-15T04:54:57.425Z,5.09
2017-11-15T04:55:57.764Z,5.01
2017-11-15T04:56:57.617Z,5.01
2017-11-15T04:57:57.017Z,5.02
2017-11-15T04:58:58.635Z,5.02
2017-11-15T04:59:57.606Z,5.01
2017-11-15T05:00:57.065Z,5.05
2017-11-15T05:01:56.036Z,5.04
2017-11-15T05:02:57.446Z,5.04
2017-11-15T05:03:57.511Z,5.04
2017-11-15T05:04:57.005Z,5.09
2017-11-15T05:05:56.751Z,5.09
2017-11-15T05:06:56.471Z,5.04
2017-11-15T05:07:57.047Z,5.07
2017-11-15T05:08:57.071Z,5.09
2017-11-15T05:09:56.913Z,5.05
2017-11-15T05:10:57.667Z,5.01
2017-11-15T05:11:58.451Z,4.99
2017-11-15T05:12:56.110Z,5.02
2017-11-15T05:13:57.990Z,5.05
2017-11-15T05:14:55.577Z,5.01
2017-11-15T05:15:58.236Z,5.13
2017-11-15T05:16:56.101Z,5.05
2017-11-15T05:17:56.879Z,5.01
2017-11-15T05:18:56.635Z,5.12
2017-11-15T05:19:57.265Z,5.04
2017-11-15T05:20:56.054Z,5.04
2017-11-15T05:21:56.027Z,5.04
2017-11-15T05:22:56.400Z,5.17
2017-11-15T05:23:56.966Z,5.05
2017-11-15T05:24:55.088Z,5.07
2017-11-15T05:25:57.399Z,5.17
2017-11-15T05:26:55.636Z,5.13
2017-11-15T05:27:56.586Z,5.12
2017-11-15T05:28:54.025Z,5.09
2017-11-15T05:29:53.956Z,4.99
2017-11-15T05:30:54.344Z,5.05
2017-11-15T05:31:55.999Z,5.09
2017-11-15T05:32:56.750Z,5.07
2017-11-15T05:33:56.844Z,5.13
2017-11-15T05:34:54.194Z,5.09
2017-11-15T05:35:53.708Z,5.07
2017-11-15T05:36:53.681Z,5.09
2017-11-15T05:37:54.022Z,5.10
2017-11-15T05:38:53.606Z,5.13
2017-11-15T05:39:53.968Z,5.09
2017-11-15T05:40:53.979Z,5.05
2017-11-15T05:41:53.893Z,5.07
2017-11-15T05:42:53.584Z,5.04
2017-11-15T05:43:53.361Z,5.09
2017-11-15T05:44:53.292Z,5.07
2017-11-15T05:45:53.536Z,5.05
2017-11-15T05:46:53.232Z,5.10
2017-11-15T05:47:54.642Z,5.13
2017-11-15T05:48:53.156Z,5.12
2017-11-15T05:49:53.114Z,5.07
2017-11-15T05:50:53.639Z,5.02
2017-11-15T05:51:52.988Z,5.02
2017-11-15T05:52:52.966Z,5.13
2017-11-15T05:53:53.316Z,5.07
2017-11-15T05:54:55.265Z,5.05
2017-11-15T05:55:55.556Z,5.05
2017-11-15T05:56:53.746Z,5.04
2017-11-15T05:57:54.128Z,5.04
2017-11-15T05:58:55.236Z,5.05
2017-11-15T05:59:54.621Z,5.12
2017-11-15T06:00:54.114Z,5.07
2017-11-15T06:01:56.814Z,5.16
2017-11-15T06:02:54.458Z,5.12
2017-11-15T06:03:54.855Z,5.14
2017-11-15T06:04:55.415Z,5.13
2017-11-15T06:05:53.627Z,5.04
2017-11-15T06:06:55.422Z,5.05
2017-11-15T06:07:54.121Z,4.96
2017-11-15T06:08:54.515Z,5.07
2017-11-15T06:09:54.616Z,5.07
2017-11-15T06:10:53.236Z,5.04
2017-11-15T06:11:54.339Z,5.04
2017-11-15T06:12:54.313Z,5.09
2017-11-15T06:13:53.288Z,4.98
2017-11-15T06:14:53.323Z,5.04
2017-11-15T06:15:53.690Z,5.04
2017-11-15T06:16:53.636Z,5.13
2017-11-15T06:17:53.892Z,5.16
2017-11-15T06:18:54.625Z,5.17
2017-11-15T06:19:54.506Z,5.13
2017-11-15T06:20:52.574Z,5.13
2017-11-15T06:21:52.190Z,5.14
2017-11-15T06:22:52.212Z,5.14
2017-11-15T06:23:53.651Z,5.09
2017-11-15T06:24:52.120Z,5.17
2017-11-15T06:25:52.633Z,5.13
2017-11-15T06:26:51.887Z,5.20
2017-11-15T06:27:52.033Z,5.27
2017-11-15T06:28:52.150Z,5.22
2017-11-15T06:29:52.062Z,5.12
2017-11-15T06:30:51.512Z,5.17
2017-11-15T06:31:52.143Z,5.13
2017-11-15T06:32:51.208Z,5.13
2017-11-15T06:33:51.227Z,5.12
2017-11-15T06:34:51.146Z,5.16
2017-11-15T06:35:51.142Z,5.10
2017-11-15T06:36:51.852Z,5.13
2017-11-15T06:37:52.876Z,5.16
2017-11-15T06:38:53.367Z,5.16
2017-11-15T06:39:53.377Z,5.19
2017-11-15T06:40:52.059Z,5.27
2017-11-15T06:41:52.111Z,5.19
2017-11-15T06:42:52.819Z,5.30
2017-11-15T06:43:52.093Z,5.30
2017-11-15T06:44:53.887Z,5.34
2017-11-15T06:45:53.494Z,5.25
2017-11-15T06:46:56.263Z,5.30
2017-11-15T06:47:52.118Z,5.30
2017-11-15T06:48:56.204Z,5.40
2017-11-15T06:49:52.036Z,5.43
2017-11-15T06:50:50.782Z,5.34
2017-11-15T06:51:50.396Z,5.34
2017-11-15T06:52:50.365Z,5.40
2017-11-15T06:53:53.097Z,5.43
2017-11-15T06:54:52.573Z,5.45
2017-11-15T06:55:51.650Z,5.55
2017-11-15T06:56:51.041Z,5.48
2017-11-15T06:57:52.122Z,5.46
2017-11-15T06:58:53.063Z,5.59
2017-11-15T06:59:54.228Z,5.55
2017-11-15T07:00:53.308Z,5.46
2017-11-15T07:01:52.864Z,5.46
2017-11-15T07:02:52.615Z,5.57
2017-11-15T07:03:51.137Z,5.55
2017-11-15T07:04:56.642Z,5.48
2017-11-15T07:05:50.331Z,5.55
2017-11-15T07:06:49.725Z,5.64
2017-11-15T07:07:49.665Z,5.60
2017-11-15T07:08:49.646Z,5.63
2017-11-15T07:09:49.570Z,5.55
2017-11-15T07:10:49.791Z,5.56
2017-11-15T07:11:49.531Z,5.55
2017-11-15T07:12:49.483Z,5.46
2017-11-15T07:13:49.889Z,5.50
2017-11-15T07:14:49.921Z,5.56
2017-11-15T07:15:49.369Z,5.53
2017-11-15T07:16:51.481Z,5.50
2017-11-15T07:17:52.811Z,5.57
2017-11-15T07:18:53.286Z,5.55
2017-11-15T07:19:52.439Z,5.63
2017-11-15T07:20:52.852Z,5.56
2017-11-15T07:21:53.946Z,5.64
2017-11-15T07:22:49.847Z,5.60
2017-11-15T07:23:51.547Z,5.60
2017-11-15T07:24:51.010Z,5.68
2017-11-15T07:25:53.100Z,5.67
2017-11-15T07:26:51.567Z,5.75
2017-11-15T07:27:52.887Z,5.73
2017-11-15T07:28:49.575Z,5.77
2017-11-15T07:29:50.698Z,5.66
2017-11-15T07:30:51.231Z,5.67
2017-11-15T07:31:51.972Z,5.68
2017-11-15T07:32:50.440Z,5.71
2017-11-15T07:33:50.826Z,5.73
2017-11-15T07:34:49.177Z,5.70
2017-11-15T07:35:49.145Z,5.73
2017-11-15T07:36:51.486Z,5.75
2017-11-15T07:37:50.415Z,5.73
2017-11-15T07:38:51.458Z,5.75
2017-11-15T07:39:48.716Z,5.89
2017-11-15T07:40:48.689Z,5.81
2017-11-15T07:41:48.593Z,5.81
2017-11-15T07:42:48.300Z,5.93
2017-11-15T07:43:50.464Z,5.92
2017-11-15T07:44:50.983Z,5.92
2017-11-15T07:45:50.436Z,5.98
2017-11-15T07:46:50.068Z,6.16
2017-11-15T07:47:58.013Z,6.16
2017-11-15T07:48:50.486Z,6.11
2017-11-15T07:49:50.733Z,6.16
2017-11-15T07:50:50.829Z,6.14
2017-11-15T07:51:49.817Z,6.16
2017-11-15T07:52:50.046Z,6.16
2017-11-15T07:53:49.803Z,6.16
2017-11-15T07:54:48.358Z,6.11
2017-11-15T07:55:51.993Z,6.16
2017-11-15T07:56:49.600Z,6.11
2017-11-15T07:57:49.247Z,6.16
2017-11-15T07:58:49.085Z,6.18
2017-11-15T07:59:49.107Z,6.16
2017-11-15T08:00:48.585Z,6.16
2017-11-15T08:01:48.162Z,6.16
2017-11-15T08:02:50.040Z,6.14
2017-11-15T08:03:48.640Z,6.22
2017-11-15T08:04:49.446Z,6.18
2017-11-15T08:05:49.973Z,6.10
2017-11-15T08:06:48.614Z,6.10
2017-11-15T08:07:48.135Z,6.22
2017-11-15T08:08:47.730Z,6.33
2017-11-15T08:09:47.152Z,6.32
2017-11-15T08:10:47.517Z,6.41
2017-11-15T08:11:48.643Z,6.38
2017-11-15T08:12:47.260Z,6.41
2017-11-15T08:13:47.360Z,6.51
2017-11-15T08:14:47.551Z,6.33
2017-11-15T08:15:46.778Z,6.36
2017-11-15T08:16:47.193Z,6.36
2017-11-15T08:17:47.079Z,6.29
2017-11-15T08:18:47.158Z,6.28
2017-11-15T08:19:47.307Z,6.26
2017-11-15T08:20:47.962Z,6.26
2017-11-15T08:21:46.741Z,6.13
2017-11-15T08:22:46.803Z,6.13
2017-11-15T08:23:47.257Z,6.18
2017-11-15T08:24:47.748Z,6.07
2017-11-15T08:25:47.269Z,6.16
2017-11-15T08:26:46.849Z,6.11
2017-11-15T08:27:47.472Z,6.19
2017-11-15T08:28:46.622Z,6.32
2017-11-15T08:29:46.938Z,6.14
2017-11-15T08:30:47.596Z,6.10
2017-11-15T08:31:46.641Z,6.00
2017-11-15T08:32:46.167Z,5.96
2017-11-15T08:33:46.159Z,5.93
2017-11-15T08:34:46.841Z,6.04
2017-11-15T08:35:46.620Z,6.09
2017-11-15T08:36:46.692Z,5.96
2017-11-15T08:37:46.571Z,6.06
2017-11-15T08:38:46.591Z,6.11
2017-11-15T08:39:45.978Z,6.06
2017-11-15T08:40:46.923Z,6.14
2017-11-15T08:41:46.047Z,6.06
2017-11-15T08:42:46.516Z,6.06
2017-11-15T08:43:46.159Z,6.06
2017-11-15T08:44:46.370Z,6.00
2017-11-15T08:45:46.111Z,6.07
2017-11-15T08:46:45.828Z,6.04
2017-11-15T08:47:47.632Z,6.09
2017-11-15T08:48:45.764Z,6.10
2017-11-15T08:49:45.892Z,6.16
2017-11-15T08:50:45.302Z,6.25
2017-11-15T08:51:45.456Z,6.38
2017-11-15T08:52:45.345Z,6.35
2017-11-15T08:53:46.579Z,6.41
2017-11-15T08:54:45.248Z,6.41
2017-11-15T08:55:45.442Z,6.32
2017-11-15T08:56:45.423Z,6.36
2017-11-15T08:57:46.049Z,6.41
2017-11-15T08:58:45.294Z,6.56
2017-11-15T08:59:45.527Z,6.63
2017-11-15T09:00:45.434Z,6.71
2017-11-15T09:01:45.131Z,6.73
2017-11-15T09:02:44.669Z,6.65
2017-11-15T09:03:44.736Z,6.65
2017-11-15T09:04:44.698Z,6.73
2017-11-15T09:05:45.533Z,6.77
2017-11-15T09:06:45.172Z,6.59
2017-11-15T09:07:45.129Z,6.58
2017-11-15T09:08:44.874Z,6.53
2017-11-15T09:09:44.863Z,6.59
2017-11-15T09:10:46.067Z,6.63
2017-11-15T09:11:44.558Z,6.69
2017-11-15T09:12:45.617Z,6.72
2017-11-15T09:13:44.540Z,6.73
2017-11-15T09:14:44.671Z,6.84
2017-11-15T09:15:46.148Z,6.89
2017-11-15T09:16:44.442Z,6.84
2017-11-15T09:17:44.614Z,6.79
2017-11-15T09:18:45.789Z,6.62
2017-11-15T09:19:44.298Z,6.73
2017-11-15T09:20:46.098Z,6.86
2017-11-15T09:21:44.287Z,6.86
2017-11-15T09:22:44.463Z,6.71
2017-11-15T09:23:44.814Z,6.73
2017-11-15T09:24:45.029Z,6.77
2017-11-15T09:25:45.679Z,6.72
2017-11-15T09:26:44.668Z,6.84
2017-11-15T09:27:44.843Z,6.98
2017-11-15T09:28:44.087Z,6.99
2017-11-15T09:29:44.125Z,7.02
2017-11-15T09:30:45.137Z,7.02
2017-11-15T09:31:44.672Z,7.01
2017-11-15T09:32:44.325Z,7.04
2017-11-15T09:33:43.824Z,6.91
2017-11-15T09:34:45.140Z,6.86
2017-11-15T09:35:44.750Z,6.95
2017-11-15T09:36:44.100Z,6.84
2017-11-15T09:37:43.645Z,6.91
2017-11-15T09:38:43.492Z,6.90
2017-11-15T09:39:44.115Z,6.94
2017-11-15T09:40:44.817Z,6.98
2017-11-15T09:41:44.030Z,6.99
2017-11-15T09:42:43.386Z,7.04
2017-11-15T09:43:44.573Z,7.02
2017-11-15T09:44:43.864Z,7.13
2017-11-15T09:45:43.384Z,7.13
2017-11-15T09:46:44.133Z,7.19
2017-11-15T09:47:45.258Z,7.29
2017-11-15T09:48:43.427Z,7.31
2017-11-15T09:49:44.738Z,7.42
2017-11-15T09:50:43.536Z,7.45
2017-11-15T09:51:43.252Z,7.44
2017-11-15T09:52:44.404Z,7.44
2017-11-15T09:53:43.987Z,7.53
2017-11-15T09:54:43.003Z,7.47
2017-11-15T09:55:43.681Z,7.42
2017-11-15T09:56:43.971Z,7.53
2017-11-15T09:57:43.182Z,7.49
2017-11-15T09:58:44.671Z,7.60
2017-11-15T09:59:42.977Z,7.63
2017-11-15T10:00:43.982Z,7.60
2017-11-15T10:01:43.054Z,7.56
2017-11-15T10:02:43.382Z,7.59
2017-11-15T10:03:43.806Z,7.59
2017-11-15T10:04:43.629Z,7.67
2017-11-15T10:05:42.627Z,7.59
2017-11-15T10:06:42.982Z,7.66
2017-11-15T10:07:43.538Z,7.74
2017-11-15T10:08:43.679Z,7.81
2017-11-15T10:09:44.189Z,7.62
2017-11-15T10:10:42.331Z,7.55
2017-11-15T10:11:43.283Z,7.60
2017-11-15T10:12:43.429Z,7.67
2017-11-15T10:13:42.568Z,7.59
2017-11-15T10:14:42.425Z,7.67
2017-11-15T10:15:43.885Z,7.79
2017-11-15T10:16:43.038Z,7.99
2017-11-15T10:17:43.680Z,7.97
2017-11-15T10:18:42.082Z,8.07
2017-11-15T10:19:43.089Z,8.02
2017-11-15T10:20:42.683Z,7.97
2017-11-15T10:21:41.960Z,8.00
2017-11-15T10:22:42.358Z,8.11
2017-11-15T10:23:43.172Z,8.00
2017-11-15T10:24:44.245Z,7.99
2017-11-15T10:25:43.169Z,7.99
2017-11-15T10:26:43.717Z,7.99
2017-11-15T10:27:43.573Z,8.18
2017-11-15T10:28:42.686Z,8.20
2017-11-15T10:29:44.074Z,8.17
2017-11-15T10:30:42.559Z,8.17
2017-11-15T10:31:41.990Z,8.22
2017-11-15T10:32:42.121Z,8.15
2017-11-15T10:33:42.663Z,8.12
2017-11-15T10:34:41.211Z,8.04
2017-11-15T10:35:41.087Z,8.11
2017-11-15T10:36:42.816Z,8.14
2017-11-15T10:37:43.641Z,8.20
2017-11-15T10:38:43.003Z,8.08
2017-11-15T10:39:43.862Z,8.00
2017-11-15T10:40:42.410Z,7.93
2017-11-15T10:41:42.426Z,8.00
2017-11-15T10:42:42.314Z,8.14
2017-11-15T10:43:42.649Z,8.04
2017-11-15T10:44:42.957Z,8.14
2017-11-15T10:45:40.513Z,8.07
2017-11-15T10:46:41.801Z,7.92
2017-11-15T10:47:41.941Z,7.84
2017-11-15T10:48:42.080Z,7.92
2017-11-15T10:49:42.089Z,7.97
2017-11-15T10:50:42.048Z,7.96
2017-11-15T10:51:41.685Z,8.10
2017-11-15T10:52:42.169Z,8.02
2017-11-15T10:53:40.439Z,8.18
2017-11-15T10:54:42.377Z,8.14
2017-11-15T10:55:41.179Z,8.08
2017-11-15T10:56:44.437Z,8.14
2017-11-15T10:57:41.653Z,7.99
2017-11-15T10:58:40.867Z,8.17
2017-11-15T10:59:41.138Z,8.15
2017-11-15T11:00:41.529Z,8.10
2017-11-15T11:01:40.802Z,8.03
2017-11-15T11:02:41.683Z,8.21
2017-11-15T11:03:40.478Z,8.15
2017-11-15T11:04:40.308Z,8.15
2017-11-15T11:05:41.564Z,8.25
2017-11-15T11:06:41.465Z,8.15
2017-11-15T11:07:41.030Z,8.33
2017-11-15T11:08:42.909Z,8.53
2017-11-15T11:09:41.877Z,8.69
2017-11-15T11:10:40.303Z,8.87
2017-11-15T11:11:40.634Z,8.84
2017-11-15T11:12:40.936Z,8.79
2017-11-15T11:13:43.942Z,8.75
2017-11-15T11:14:39.710Z,8.78
2017-11-15T11:15:40.827Z,8.71
2017-11-15T11:16:41.883Z,8.71
2017-11-15T11:17:40.929Z,8.66
2017-11-15T11:18:39.104Z,8.73
2017-11-15T11:19:39.044Z,8.93
2017-11-15T11:20:39.559Z,9.04
2017-11-15T11:21:41.581Z,9.21
2017-11-15T11:22:40.919Z,9.21
2017-11-15T11:23:39.201Z,9.34
2017-11-15T11:24:39.587Z,9.09
2017-11-15T11:25:39.020Z,9.09
2017-11-15T11:26:39.294Z,9.25
2017-11-15T11:27:40.645Z,9.24
2017-11-15T11:28:41.268Z,9.40
2017-11-15T11:29:39.503Z,9.39
2017-11-15T11:30:41.420Z,9.20
2017-11-15T11:31:39.683Z,8.83
2017-11-15T11:32:41.335Z,9.06
2017-11-15T11:33:40.682Z,9.21
2017-11-15T11:34:41.376Z,9.20
2017-11-15T11:35:40.570Z,9.23
2017-11-15T11:36:41.205Z,9.20
2017-11-15T11:37:39.647Z,9.21
2017-11-15T11:38:40.284Z,9.32
2017-11-15T11:39:41.787Z,9.53
2017-11-15T11:40:40.864Z,9.25
2017-11-15T11:41:40.337Z,9.24
2017-11-15T11:42:38.655Z,9.23
2017-11-15T11:43:40.209Z,9.30
2017-11-15T11:44:39.014Z,9.27
2017-11-15T11:45:39.609Z,9.32
2017-11-15T11:46:40.460Z,9.18
2017-11-15T11:47:39.919Z,9.04
2017-11-15T11:48:40.613Z,9.13
2017-11-15T11:49:39.797Z,9.18
2017-11-15T11:50:38.810Z,9.27
2017-11-15T11:51:39.644Z,9.24
2017-11-15T11:52:40.178Z,9.32
2017-11-15T11:53:40.136Z,9.21
2017-11-15T11:54:39.178Z,9.10
2017-11-15T11:55:39.474Z,9.06
2017-11-15T11:56:41.443Z,9.12
2017-11-15T11:57:38.658Z,9.06
2017-11-15T11:58:37.941Z,8.87
2017-11-15T11:59:41.371Z,9.04
2017-11-15T12:00:41.006Z,9.20
2017-11-15T12:01:40.132Z,9.20
2017-11-15T12:02:40.152Z,9.18
2017-11-15T12:03:40.190Z,9.32
2017-11-15T12:04:40.843Z,9.32
2017-11-15T12:05:38.853Z,9.32
2017-11-15T12:06:39.202Z,9.38
2017-11-15T12:07:40.481Z,9.09
2017-11-15T12:08:39.815Z,8.96
2017-11-15T12:09:39.387Z,8.84
2017-11-15T12:10:41.442Z,8.71
2017-11-15T12:11:38.635Z,8.69
2017-11-15T12:12:38.649Z,8.72
2017-11-15T12:13:41.422Z,8.79
2017-11-15T12:14:40.045Z,8.91
2017-11-15T12:15:39.363Z,8.84
2017-11-15T12:16:40.537Z,8.84
2017-11-15T12:17:39.644Z,8.97
2017-11-15T12:18:38.715Z,8.96
2017-11-15T12:19:39.873Z,8.96
2017-11-15T12:20:39.156Z,8.97
2017-11-15T12:21:40.382Z,9.06
2017-11-15T12:22:38.407Z,9.09
2017-11-15T12:23:39.625Z,9.09
2017-11-15T12:24:40.438Z,9.06
2017-11-15T12:25:38.213Z,9.21
2017-11-15T12:26:38.166Z,9.23
2017-11-15T12:27:39.179Z,9.12
2017-11-15T12:28:39.081Z,9.12
2017-11-15T12:29:37.623Z,9.32
2017-11-15T12:30:37.195Z,9.30
2017-11-15T12:31:38.362Z,9.52
2017-11-15T12:32:38.198Z,9.35
2017-11-15T12:33:38.193Z,9.25
2017-11-15T12:34:39.546Z,9.21
2017-11-15T12:35:39.930Z,9.20
2017-11-15T12:36:39.161Z,9.20
2017-11-15T12:37:39.619Z,9.42
2017-11-15T12:38:38.634Z,9.31
2017-11-15T12:39:41.492Z,9.27
2017-11-15T12:40:37.086Z,9.20
2017-11-15T12:41:37.111Z,9.35
2017-11-15T12:42:38.875Z,9.32
2017-11-15T12:43:37.700Z,9.40
2017-11-15T12:44:43.025Z,9.57
2017-11-15T12:45:38.717Z,9.57
2017-11-15T12:46:38.587Z,9.40
2017-11-15T12:47:39.452Z,9.43
2017-11-15T12:48:40.200Z,9.48
2017-11-15T12:49:37.480Z,9.52
2017-11-15T12:50:37.549Z,9.43
2017-11-15T12:51:40.989Z,9.67
2017-11-15T12:52:38.007Z,9.56
2017-11-15T12:53:37.409Z,9.66
2017-11-15T12:54:39.163Z,9.63
2017-11-15T12:55:37.673Z,9.66
2017-11-15T12:56:37.185Z,9.73
2017-11-15T12:57:38.044Z,9.68
2017-11-15T12:58:37.941Z,9.85
2017-11-15T12:59:39.694Z,9.66
2017-11-15T13:00:37.931Z,9.57
2017-11-15T13:01:38.861Z,9.46
2017-11-15T13:02:38.876Z,9.43
2017-11-15T13:03:40.095Z,9.34
2017-11-15T13:04:38.873Z,9.24
2017-11-15T13:05:37.185Z,9.46
2017-11-15T13:06:37.924Z,9.48
2017-11-15T13:07:39.819Z,9.61
2017-11-15T13:08:38.132Z,9.68
2017-11-15T13:09:36.138Z,9.60
2017-11-15T13:10:37.092Z,9.60
2017-11-15T13:11:39.656Z,9.73
2017-11-15T13:12:37.740Z,9.76
2017-11-15T13:13:38.233Z,9.64
2017-11-15T13:14:39.153Z,9.64
2017-11-15T13:15:36.933Z,9.71
2017-11-15T13:16:37.621Z,9.68
2017-11-15T13:17:43.458Z,9.79
2017-11-15T13:18:40.403Z,9.97
2017-11-15T13:19:37.299Z,9.99
2017-11-15T13:20:40.008Z,10.01
2017-11-15T13:21:38.511Z,9.91
2017-11-15T13:22:38.486Z,9.64
2017-11-15T13:23:38.091Z,9.63
2017-11-15T13:24:38.898Z,9.49
2017-11-15T13:25:40.899Z,9.48
2017-11-15T13:26:41.058Z,9.60
2017-11-15T13:27:37.141Z,9.49
2017-11-15T13:28:38.211Z,9.28
2017-11-15T13:29:40.889Z,9.15
2017-11-15T13:30:38.891Z,9.04
2017-11-15T13:31:36.595Z,9.25
2017-11-15T13:32:41.746Z,9.40
2017-11-15T13:33:43.194Z,9.45
2017-11-15T13:34:37.224Z,9.48
2017-11-15T13:35:35.932Z,9.56
2017-11-15T13:36:38.964Z,9.50
2017-11-15T13:37:38.471Z,9.40
2017-11-15T13:38:38.163Z,9.42
2017-11-15T13:39:38.826Z,9.49
2017-11-15T13:40:41.118Z,9.61
2017-11-15T13:41:36.893Z,9.52
2017-11-15T13:42:39.835Z,9.49
2017-11-15T13:43:35.966Z,9.64
2017-11-15T13:44:36.498Z,9.60
2017-11-15T13:45:37.564Z,9.61
2017-11-15T13:46:33.847Z,9.75
2017-11-15T13:47:33.437Z,9.68
2017-11-15T13:48:33.487Z,9.75
2017-11-15T13:49:42.751Z,9.75
2017-11-15T13:50:35.919Z,9.75
2017-11-15T13:51:42.483Z,9.76
2017-11-15T13:52:36.414Z,9.70
2017-11-15T13:53:40.507Z,9.78
2017-11-15T13:54:39.742Z,9.61
2017-11-15T13:55:36.826Z,9.48
2017-11-15T13:56:40.371Z,9.42
2017-11-15T13:57:36.146Z,9.49
2017-11-15T13:58:39.978Z,9.34
2017-11-15T13:59:38.017Z,9.25
2017-11-15T14:00:33.654Z,9.20
2017-11-15T14:01:32.624Z,9.24
2017-11-15T14:02:33.389Z,9.27
2017-11-15T14:03:33.332Z,9.27
2017-11-15T14:04:33.483Z,9.28
2017-11-15T14:05:33.402Z,9.21
2017-11-15T14:06:32.938Z,9.25
2017-11-15T14:07:33.015Z,9.15